Time,TemperatureF,DewpointF,PressureIn,WindDirection,WindDirectionDegrees,WindSpeedMPH,WindSpeedGustMPH,Humidity,HourlyPrecipIn,Conditions,Clouds,dailyrainin,SoftwareType,DateUTC
2013-01-29 00:04:00,40.0,21.9,30.12,SSW,213,6.8,9.6,48,-99.99,,,-99.99,WSDL version 420,2013-01-29 08:04:00,
2013-01-29 00:10:00,40.2,22.1,30.12,SSW,209,5.2,9.6,48,-99.99,,,-99.99,WSDL version 420,2013-01-29 08:10:00,
2013-01-29 00:15:00,40.2,21.8,30.12,SW,231,6.6,9.6,47,-99.99,,,-99.99,WSDL version 420,2013-01-29 08:15:00,
2013-01-29 00:20:00,40.1,21.5,30.12,SW,214,5.9,9.6,47,-99.99,,,-99.99,WSDL version 420,2013-01-29 08:20:00,
2013-01-29 00:25:00,40.0,21.4,30.12,SSW,208,4.6,8.7,47,-99.99,,,-99.99,WSDL version 420,2013-01-29 08:25:00,
2013-01-29 00:30:00,39.9,21.5,30.12,SSW,208,5.6,8.3,48,-99.99,,,-99.99,WSDL version 420,2013-01-29 08:30:00,
2013-01-29 00:35:00,39.6,21.8,30.12,SSW,208,5.3,8.3,49,-99.99,,,-99.99,WSDL version 420,2013-01-29 08:35:00,
2013-01-29 00:40:00,39.6,22.0,30.12,SSW,213,5.1,8.3,49,-99.99,,,-99.99,WSDL version 420,2013-01-29 08:40:00,
2013-01-29 00:45:00,39.5,21.9,30.12,SW,219,5.0,8.3,49,-99.99,,,-99.99,WSDL version 420,2013-01-29 08:45:00,
2013-01-29 00:50:00,39.4,21.8,30.12,SW,215,6.5,10.5,49,-99.99,,,-99.99,WSDL version 420,2013-01-29 08:50:00,
2013-01-29 00:55:00,39.4,21.8,30.12,SW,228,6.5,10.5,49,-99.99,,,-99.99,WSDL version 420,2013-01-29 08:55:00,
2013-01-29 01:00:00,39.4,21.8,30.12,SW,220,6.2,8.3,49,-99.99,,,-99.99,WSDL version 420,2013-01-29 09:00:00,
2013-01-29 01:05:00,39.3,21.8,30.12,SW,222,5.7,8.3,49,-99.99,,,-99.99,WSDL version 420,2013-01-29 09:05:00,
2013-01-29 01:10:00,39.4,21.8,30.12,SW,228,5.3,8.7,49,-99.99,,,-99.99,WSDL version 420,2013-01-29 09:10:00,
2013-01-29 01:15:00,39.4,21.9,30.12,SSW,208,6.3,11.0,49,-99.99,,,-99.99,WSDL version 420,2013-01-29 09:15:00,
2013-01-29 01:20:00,39.6,21.9,30.12,SSW,203,5.2,11.0,48,-99.99,,,-99.99,WSDL version 420,2013-01-29 09:20:00,
2013-01-29 01:25:00,39.5,21.6,30.12,SSW,205,6.4,8.7,49,-99.99,,,-99.99,WSDL version 420,2013-01-29 09:25:00,
2013-01-29 01:30:00,39.4,21.8,30.12,SW,228,7.9,12.3,49,-99.99,,,-99.99,WSDL version 420,2013-01-29 09:30:00,
2013-01-29 01:35:00,39.3,21.8,30.12,SW,233,7.2,12.3,49,-99.99,,,-99.99,WSDL version 420,2013-01-29 09:35:00,
2013-01-29 01:40:00,39.2,21.9,30.12,SW,219,5.9,9.6,50,-99.99,,,-99.99,WSDL version 420,2013-01-29 09:40:00,
2013-01-29 01:45:00,39.1,22.0,30.09,SW,220,6.7,10.5,49,-99.99,,,-99.99,WSDL version 420,2013-01-29 09:45:00,
2013-01-29 01:50:00,39.2,21.7,30.09,SSW,213,5.8,10.5,49,-99.99,,,-99.99,WSDL version 420,2013-01-29 09:50:00,
2013-01-29 01:56:00,39.4,21.8,30.09,SSW,205,5.8,10.1,49,-99.99,,,-99.99,WSDL version 420,2013-01-29 09:56:00,
2013-01-29 02:01:00,39.3,21.8,30.12,SSW,205,7.6,11.0,49,-99.99,,,-99.99,WSDL version 420,2013-01-29 10:01:00,
2013-01-29 02:06:00,39.2,21.8,30.12,SSW,200,7.6,11.0,50,-99.99,,,-99.99,WSDL version 420,2013-01-29 10:06:00,
2013-01-29 02:11:00,38.9,21.8,30.12,SSW,213,6.1,11.0,50,-99.99,,,-99.99,WSDL version 420,2013-01-29 10:11:00,
2013-01-29 02:16:00,38.8,22.2,30.12,SSW,211,6.1,8.7,51,-99.99,,,-99.99,WSDL version 420,2013-01-29 10:16:00,
2013-01-29 02:21:00,38.7,22.1,30.12,SW,218,5.3,8.7,51,-99.99,,,-99.99,WSDL version 420,2013-01-29 10:21:00,
2013-01-29 02:26:00,38.7,22.1,30.12,SSW,205,4.9,8.3,51,-99.99,,,-99.99,WSDL version 420,2013-01-29 10:26:00,
2013-01-29 02:31:00,38.6,22.1,30.12,SSW,213,4.6,8.1,51,-99.99,,,-99.99,WSDL version 420,2013-01-29 10:31:00,
2013-01-29 02:36:00,38.4,21.9,30.12,SW,225,2.5,5.8,51,-99.99,,,-99.99,WSDL version 420,2013-01-29 10:36:00,
2013-01-29 02:41:00,38.1,21.6,30.12,SW,225,2.3,4.9,51,-99.99,,,-99.99,WSDL version 420,2013-01-29 10:41:00,
2013-01-29 02:46:00,37.7,21.5,30.12,SW,218,3.3,4.0,52,-99.99,,,-99.99,WSDL version 420,2013-01-29 10:46:00,
2013-01-29 02:51:00,37.6,21.7,30.12,SW,233,4.8,6.3,53,-99.99,,,-99.99,WSDL version 420,2013-01-29 10:51:00,
2013-01-29 02:56:00,38.3,22.4,30.12,SW,235,3.9,7.2,52,-99.99,,,-99.99,WSDL version 420,2013-01-29 10:56:00,
2013-01-29 03:01:00,38.5,21.9,30.12,SSW,209,2.6,7.2,51,-99.99,,,-99.99,WSDL version 420,2013-01-29 11:01:00,
2013-01-29 03:07:00,38.0,22.0,30.12,SSW,203,0.5,4.0,52,-99.99,,,-99.99,WSDL version 420,2013-01-29 11:07:00,
2013-01-29 03:12:00,37.7,21.8,30.12,WSW,248,2.9,3.6,53,-99.99,,,-99.99,WSDL version 420,2013-01-29 11:12:00,
2013-01-29 03:18:00,36.6,21.9,30.12,WSW,248,0.3,3.6,55,-99.99,,,-99.99,WSDL version 420,2013-01-29 11:18:00,
2013-01-29 03:23:00,36.2,21.9,30.12,WSW,248,2.5,3.6,56,-99.99,,,-99.99,WSDL version 420,2013-01-29 11:23:00,
2013-01-29 03:28:00,35.9,21.7,30.12,WSW,248,1.2,4.0,56,-99.99,,,-99.99,WSDL version 420,2013-01-29 11:28:00,
2013-01-29 03:33:00,35.6,21.5,30.12,WSW,248,1.5,4.0,56,-99.99,,,-99.99,WSDL version 420,2013-01-29 11:33:00,
2013-01-29 03:38:00,35.5,21.7,30.12,WSW,248,2.4,4.0,57,-99.99,,,-99.99,WSDL version 420,2013-01-29 11:38:00,
2013-01-29 03:43:00,35.2,21.0,30.12,WSW,248,3.3,4.9,55,-99.99,,,-99.99,WSDL version 420,2013-01-29 11:43:00,
2013-01-29 03:48:00,35.2,20.6,30.12,WSW,243,4.0,6.3,54,-99.99,,,-99.99,WSDL version 420,2013-01-29 11:48:00,
2013-01-29 03:53:00,35.5,20.7,30.12,SSW,203,3.5,6.3,54,-99.99,,,-99.99,WSDL version 420,2013-01-29 11:53:00,
2013-01-29 03:58:00,35.6,21.1,30.12,SSW,203,2.4,4.9,56,-99.99,,,-99.99,WSDL version 420,2013-01-29 11:58:00,
2013-01-29 04:04:00,36.3,23.0,30.12,SSW,203,3.1,4.0,58,-99.99,,,-99.99,WSDL version 420,2013-01-29 12:04:00,
2013-01-29 04:10:00,36.5,23.1,30.12,SSW,203,2.1,4.5,57,-99.99,,,-99.99,WSDL version 420,2013-01-29 12:10:00,
2013-01-29 04:15:00,36.7,22.9,30.12,SSW,203,1.7,4.5,57,-99.99,,,-99.99,WSDL version 420,2013-01-29 12:15:00,
2013-01-29 04:20:00,36.8,22.7,30.12,SSW,203,0.0,3.6,56,-99.99,,,-99.99,WSDL version 420,2013-01-29 12:20:00,
2013-01-29 04:25:00,36.6,22.5,30.12,SSW,203,0.0,3.6,57,-99.99,,,-99.99,WSDL version 420,2013-01-29 12:25:00,
2013-01-29 04:30:00,36.3,22.6,30.12,SSW,203,0.0,3.6,57,-99.99,,,-99.99,WSDL version 420,2013-01-29 12:30:00,
2013-01-29 04:35:00,36.1,22.8,30.12,SSW,203,2.9,4.0,58,-99.99,,,-99.99,WSDL version 420,2013-01-29 12:35:00,
2013-01-29 04:40:00,36.1,22.8,30.12,SSW,203,0.6,4.0,58,-99.99,,,-99.99,WSDL version 420,2013-01-29 12:40:00,
2013-01-29 04:45:00,36.0,23.0,30.12,SSW,203,3.8,4.9,59,-99.99,,,-99.99,WSDL version 420,2013-01-29 12:45:00,
2013-01-29 04:50:00,36.1,23.0,30.12,South,183,3.2,5.4,58,-99.99,,,-99.99,WSDL version 420,2013-01-29 12:50:00,
2013-01-29 04:56:00,36.6,23.1,30.12,SSE,158,2.8,5.4,57,-99.99,,,-99.99,WSDL version 420,2013-01-29 12:56:00,
2013-01-29 05:01:00,36.8,23.0,30.12,SW,219,3.5,6.7,57,-99.99,,,-99.99,WSDL version 420,2013-01-29 13:01:00,
2013-01-29 05:06:00,37.3,23.2,30.12,SSW,213,3.8,7.6,56,-99.99,,,-99.99,WSDL version 420,2013-01-29 13:06:00,
2013-01-29 05:11:00,37.7,23.1,30.12,SW,215,5.0,7.6,55,-99.99,,,-99.99,WSDL version 420,2013-01-29 13:11:00,
2013-01-29 05:16:00,37.8,22.6,30.12,SW,236,3.0,7.2,54,-99.99,,,-99.99,WSDL version 420,2013-01-29 13:16:00,
2013-01-29 05:21:00,36.7,22.2,30.12,WNW,293,4.3,5.8,57,-99.99,,,-99.99,WSDL version 420,2013-01-29 13:21:00,
2013-01-29 05:26:00,34.8,22.0,30.12,WNW,293,3.1,5.8,60,-99.99,,,-99.99,WSDL version 420,2013-01-29 13:26:00,
2013-01-29 05:31:00,33.6,21.7,30.12,WNW,293,3.5,4.9,63,-99.99,,,-99.99,WSDL version 420,2013-01-29 13:31:00,
2013-01-29 05:36:00,32.8,22.2,30.12,WNW,293,2.2,4.9,65,-99.99,,,-99.99,WSDL version 420,2013-01-29 13:36:00,
2013-01-29 05:41:00,32.6,22.4,30.12,WNW,293,2.2,4.0,66,-99.99,,,-99.99,WSDL version 420,2013-01-29 13:41:00,
2013-01-29 05:46:00,32.5,22.4,30.12,WNW,293,3.1,4.0,66,-99.99,,,-99.99,WSDL version 420,2013-01-29 13:46:00,
2013-01-29 05:51:00,32.3,22.5,30.12,WNW,293,1.2,4.0,67,-99.99,,,-99.99,WSDL version 420,2013-01-29 13:51:00,
2013-01-29 05:56:00,31.8,23.3,30.12,NNE,23,4.4,5.4,68,-99.99,,,-99.99,WSDL version 420,2013-01-29 13:56:00,
2013-01-29 06:02:00,31.1,22.9,30.12,NNE,23,0.0,5.8,68,-99.99,,,-99.99,WSDL version 420,2013-01-29 14:02:00,
2013-01-29 06:07:00,31.1,23.1,30.12,NNE,23,0.0,3.6,69,-99.99,,,-99.99,WSDL version 420,2013-01-29 14:07:00,
2013-01-29 06:12:00,31.0,23.1,30.12,NNE,23,0.0,3.6,69,-99.99,,,-99.99,WSDL version 420,2013-01-29 14:12:00,
2013-01-29 06:17:00,30.8,23.0,30.15,NNE,23,0.0,2.2,70,-99.99,,,-99.99,WSDL version 420,2013-01-29 14:17:00,
2013-01-29 06:22:00,30.7,23.1,30.15,NNE,23,0.0,0.0,71,-99.99,,,-99.99,WSDL version 420,2013-01-29 14:22:00,
2013-01-29 06:27:00,30.7,23.3,30.15,NNE,23,0.0,2.2,71,-99.99,,,-99.99,WSDL version 420,2013-01-29 14:27:00,
2013-01-29 06:32:00,30.7,23.3,30.15,NNE,23,0.0,2.7,70,-99.99,,,-99.99,WSDL version 420,2013-01-29 14:32:00,
2013-01-29 06:37:00,30.3,22.9,30.15,NNE,23,1.5,3.1,71,-99.99,,,-99.99,WSDL version 420,2013-01-29 14:37:00,
2013-01-29 06:42:00,30.2,22.9,30.15,NNE,23,0.0,3.1,71,-99.99,,,-99.99,WSDL version 420,2013-01-29 14:42:00,
2013-01-29 06:47:00,30.0,22.7,30.15,NNE,23,0.0,2.2,71,-99.99,,,-99.99,WSDL version 420,2013-01-29 14:47:00,
2013-01-29 06:52:00,29.8,22.5,30.15,NNE,23,0.0,0.0,71,-99.99,,,-99.99,WSDL version 420,2013-01-29 14:52:00,
2013-01-29 06:57:00,29.7,22.6,30.15,NNE,23,2.5,4.0,72,-99.99,,,-99.99,WSDL version 420,2013-01-29 14:57:00,
2013-01-29 07:02:00,29.8,22.8,30.15,NNE,23,0.0,4.0,72,-99.99,,,-99.99,WSDL version 420,2013-01-29 15:02:00,
2013-01-29 07:07:00,29.8,22.9,30.15,NNE,23,0.0,2.7,73,-99.99,,,-99.99,WSDL version 420,2013-01-29 15:07:00,
2013-01-29 07:12:00,30.6,23.7,30.15,NNE,23,3.4,4.0,72,-99.99,,,-99.99,WSDL version 420,2013-01-29 15:12:00,
2013-01-29 07:17:00,30.9,23.9,30.15,NNE,23,1.9,4.0,72,-99.99,,,-99.99,WSDL version 420,2013-01-29 15:17:00,
2013-01-29 07:22:00,31.3,23.9,30.15,NNE,23,1.2,3.6,71,-99.99,,,-99.99,WSDL version 420,2013-01-29 15:22:00,
2013-01-29 07:27:00,31.7,24.2,30.15,NNE,23,3.5,4.9,70,-99.99,,,-99.99,WSDL version 420,2013-01-29 15:27:00,
2013-01-29 07:32:00,32.2,23.6,30.12,ENE,68,4.0,6.3,69,-99.99,,,-99.99,WSDL version 420,2013-01-29 15:32:00,
2013-01-29 07:37:00,32.5,23.2,30.12,ENE,68,3.4,6.3,68,-99.99,,,-99.99,WSDL version 420,2013-01-29 15:37:00,
2013-01-29 07:42:00,32.6,22.9,30.12,NE,45,4.1,7.2,67,-99.99,,,-99.99,WSDL version 420,2013-01-29 15:42:00,
2013-01-29 07:47:00,33.0,22.8,30.15,NNE,25,3.1,7.2,65,-99.99,,,-99.99,WSDL version 420,2013-01-29 15:47:00,
2013-01-29 07:52:00,33.5,22.7,30.15,ENE,68,1.3,6.3,64,-99.99,,,-99.99,WSDL version 420,2013-01-29 15:52:00,
2013-01-29 07:57:00,34.1,23.0,30.15,ENE,68,0.0,6.3,63,-99.99,,,-99.99,WSDL version 420,2013-01-29 15:57:00,
2013-01-29 08:02:00,34.4,22.5,30.15,ENE,68,0.0,2.7,61,-99.99,,,-99.99,WSDL version 420,2013-01-29 16:02:00,
2013-01-29 08:07:00,35.1,22.4,30.15,ENE,68,2.1,3.1,59,-99.99,,,-99.99,WSDL version 420,2013-01-29 16:07:00,
2013-01-29 08:12:00,35.6,22.0,30.15,NW,323,3.1,4.0,57,-99.99,,,-99.99,WSDL version 420,2013-01-29 16:12:00,
2013-01-29 08:17:00,35.6,21.7,30.15,WNW,293,3.7,4.9,57,-99.99,,,-99.99,WSDL version 420,2013-01-29 16:17:00,
2013-01-29 08:22:00,36.1,22.4,30.15,NW,308,2.2,4.9,57,-99.99,,,-99.99,WSDL version 420,2013-01-29 16:22:00,
2013-01-29 08:27:00,36.4,22.2,30.15,NNW,338,2.1,4.5,56,-99.99,,,-99.99,WSDL version 420,2013-01-29 16:27:00,
2013-01-29 08:32:00,36.9,22.4,30.15,NNE,25,4.5,6.3,55,-99.99,,,-99.99,WSDL version 420,2013-01-29 16:32:00,
2013-01-29 08:37:00,37.2,22.1,30.15,NNE,23,3.8,6.3,54,-99.99,,,-99.99,WSDL version 420,2013-01-29 16:37:00,
2013-01-29 08:42:00,37.7,22.2,30.15,NW,318,2.5,5.4,53,-99.99,,,-99.99,WSDL version 420,2013-01-29 16:42:00,
2013-01-29 08:47:00,38.4,22.3,30.15,NW,313,4.9,6.3,51,-99.99,,,-99.99,WSDL version 420,2013-01-29 16:47:00,
2013-01-29 08:52:00,38.9,22.5,30.15,NW,309,4.0,6.3,51,-99.99,,,-99.99,WSDL version 420,2013-01-29 16:52:00,
2013-01-29 08:57:00,39.2,22.2,30.15,North,358,1.8,5.4,50,-99.99,,,-99.99,WSDL version 420,2013-01-29 16:57:00,
2013-01-29 09:02:00,39.7,22.1,30.15,NNE,23,2.0,5.8,49,-99.99,,,-99.99,WSDL version 420,2013-01-29 17:02:00,
2013-01-29 09:07:00,40.7,22.8,30.15,NNE,23,1.3,5.8,47,-99.99,,,-99.99,WSDL version 420,2013-01-29 17:07:00,
2013-01-29 09:12:00,42.0,23.0,30.15,NNE,23,0.7,3.6,45,-99.99,,,-99.99,WSDL version 420,2013-01-29 17:12:00,
2013-01-29 09:17:00,42.7,22.8,30.12,NNE,23,0.0,3.1,44,-99.99,,,-99.99,WSDL version 420,2013-01-29 17:17:00,
2013-01-29 09:22:00,43.9,23.0,30.12,NNE,23,0.9,3.6,43,-99.99,,,-99.99,WSDL version 420,2013-01-29 17:22:00,
2013-01-29 09:27:00,45.1,23.5,30.12,NNE,23,1.4,3.6,42,-99.99,,,-99.99,WSDL version 420,2013-01-29 17:27:00,
2013-01-29 09:32:00,45.1,23.4,30.15,NNE,23,0.0,4.0,42,-99.99,,,-99.99,WSDL version 420,2013-01-29 17:32:00,
2013-01-29 09:37:00,46.3,23.9,30.15,NNE,23,0.0,4.0,41,-99.99,,,-99.99,WSDL version 420,2013-01-29 17:37:00,
2013-01-29 09:42:00,46.4,23.8,30.15,NNE,23,0.0,3.1,41,-99.99,,,-99.99,WSDL version 420,2013-01-29 17:42:00,
2013-01-29 09:47:00,45.9,23.4,30.15,NW,318,2.3,4.5,41,-99.99,,,-99.99,WSDL version 420,2013-01-29 17:47:00,
2013-01-29 09:52:00,46.1,23.7,30.15,WNW,301,3.5,4.5,41,-99.99,,,-99.99,WSDL version 420,2013-01-29 17:52:00,
2013-01-29 09:57:00,45.4,23.0,30.15,NNW,333,2.9,5.4,41,-99.99,,,-99.99,WSDL version 420,2013-01-29 17:57:00,
2013-01-29 10:03:00,45.7,23.6,30.15,NW,304,2.7,5.8,41,-99.99,,,-99.99,WSDL version 420,2013-01-29 18:03:00,
2013-01-29 10:08:00,46.2,23.7,30.15,NW,308,0.7,4.9,40,-99.99,,,-99.99,WSDL version 420,2013-01-29 18:08:00,
2013-01-29 10:13:00,46.0,23.3,30.15,NNE,23,2.7,5.4,40,-99.99,,,-99.99,WSDL version 420,2013-01-29 18:13:00,
2013-01-29 10:18:00,46.3,23.4,30.15,North,3,4.3,6.3,40,-99.99,,,-99.99,WSDL version 420,2013-01-29 18:18:00,
2013-01-29 10:23:00,46.7,23.7,30.15,NNE,23,4.5,6.3,40,-99.99,,,-99.99,WSDL version 420,2013-01-29 18:23:00,
2013-01-29 10:28:00,46.9,23.9,30.15,NNE,20,4.8,6.3,40,-99.99,,,-99.99,WSDL version 420,2013-01-29 18:28:00,
2013-01-29 10:33:00,46.6,23.6,30.15,North,358,3.8,6.3,40,-99.99,,,-99.99,WSDL version 420,2013-01-29 18:33:00,
2013-01-29 10:38:00,46.6,23.6,30.15,North,360,4.7,6.3,40,-99.99,,,-99.99,WSDL version 420,2013-01-29 18:38:00,
2013-01-29 10:43:00,47.0,24.0,30.15,NNE,15,2.9,6.3,40,-99.99,,,-99.99,WSDL version 420,2013-01-29 18:43:00,
2013-01-29 10:48:00,48.6,24.9,30.15,East,84,2.3,5.8,39,-99.99,,,-99.99,WSDL version 420,2013-01-29 18:48:00,
2013-01-29 10:53:00,48.8,24.9,30.15,East,80,3.9,5.8,39,-99.99,,,-99.99,WSDL version 420,2013-01-29 18:53:00,
2013-01-29 10:58:00,49.5,25.2,30.15,North,6,3.1,5.8,38,-99.99,,,-99.99,WSDL version 420,2013-01-29 18:58:00,
2013-01-29 11:03:00,48.7,24.4,30.15,North,3,3.9,6.3,39,-99.99,,,-99.99,WSDL version 420,2013-01-29 19:03:00,
2013-01-29 11:08:00,49.7,25.2,30.15,NNE,20,2.6,6.3,38,-99.99,,,-99.99,WSDL version 420,2013-01-29 19:08:00,
2013-01-29 11:13:00,49.9,25.3,30.15,WNW,293,3.3,5.4,38,-99.99,,,-99.99,WSDL version 420,2013-01-29 19:13:00,
2013-01-29 11:18:00,50.2,25.3,30.15,WNW,293,4.3,7.2,38,-99.99,,,-99.99,WSDL version 420,2013-01-29 19:18:00,
2013-01-29 11:23:00,50.6,25.3,30.15,WNW,293,3.0,7.2,37,-99.99,,,-99.99,WSDL version 420,2013-01-29 19:23:00,
2013-01-29 11:28:00,50.8,25.6,30.15,NW,323,3.9,6.7,37,-99.99,,,-99.99,WSDL version 420,2013-01-29 19:28:00,
2013-01-29 11:33:00,51.0,25.8,30.12,WNW,293,3.7,6.7,37,-99.99,,,-99.99,WSDL version 420,2013-01-29 19:33:00,
2013-01-29 11:38:00,51.5,26.1,30.12,WNW,285,3.0,7.2,37,-99.99,,,-99.99,WSDL version 420,2013-01-29 19:38:00,
2013-01-29 11:43:00,51.3,25.9,30.12,NNW,335,4.2,7.2,37,-99.99,,,-99.99,WSDL version 420,2013-01-29 19:43:00,
2013-01-29 11:48:00,51.1,25.8,30.12,NNW,335,5.2,6.7,37,-99.99,,,-99.99,WSDL version 420,2013-01-29 19:48:00,
2013-01-29 11:53:00,51.9,25.9,30.12,NNW,328,1.5,6.3,36,-99.99,,,-99.99,WSDL version 420,2013-01-29 19:53:00,
2013-01-29 11:58:00,52.6,26.4,30.12,North,6,2.3,4.9,36,-99.99,,,-99.99,WSDL version 420,2013-01-29 19:58:00,
2013-01-29 11:59:00,52.7,26.5,30.12,WNW,295,2.7,4.9,36,-99.99,,,-99.99,WSDL version 420,2013-01-29 19:59:00,
2013-01-29 12:05:00,53.5,27.2,30.12,NW,323,3.4,5.4,36,-99.99,,,-99.99,WSDL version 420,2013-01-29 20:05:00,
2013-01-29 12:10:00,53.6,27.3,30.12,NW,310,4.6,5.8,36,-99.99,,,-99.99,WSDL version 420,2013-01-29 20:10:00,
2013-01-29 12:15:00,54.1,27.5,30.09,North,350,4.0,6.3,36,-99.99,,,-99.99,WSDL version 420,2013-01-29 20:15:00,
2013-01-29 12:20:00,54.4,27.3,30.09,NNW,330,4.7,7.6,35,-99.99,,,-99.99,WSDL version 420,2013-01-29 20:20:00,
2013-01-29 12:25:00,55.1,27.8,30.09,NNW,338,0.9,7.6,34,-99.99,,,-99.99,WSDL version 420,2013-01-29 20:25:00,
2013-01-29 12:30:00,55.2,28.0,30.12,NW,318,3.8,6.3,35,-99.99,,,-99.99,WSDL version 420,2013-01-29 20:30:00,
2013-01-29 12:35:00,55.5,27.7,30.12,NW,325,2.4,6.3,34,-99.99,,,-99.99,WSDL version 420,2013-01-29 20:35:00,
2013-01-29 12:40:00,56.0,28.3,30.12,WNW,295,3.7,5.8,34,-99.99,,,-99.99,WSDL version 420,2013-01-29 20:40:00,
2013-01-29 12:46:00,55.3,27.3,30.09,NNW,330,3.4,7.2,34,-99.99,,,-99.99,WSDL version 420,2013-01-29 20:46:00,
2013-01-29 12:51:00,56.0,27.9,30.09,North,3,1.6,7.2,33,-99.99,,,-99.99,WSDL version 420,2013-01-29 20:51:00,
2013-01-29 12:56:00,56.8,28.0,30.09,NE,40,2.8,4.9,32,-99.99,,,-99.99,WSDL version 420,2013-01-29 20:56:00,
2013-01-29 13:01:00,56.9,27.8,30.09,NNW,335,4.0,5.8,33,-99.99,,,-99.99,WSDL version 420,2013-01-29 21:01:00,
2013-01-29 13:06:00,56.6,27.5,30.09,WNW,295,4.8,6.7,33,-99.99,,,-99.99,WSDL version 420,2013-01-29 21:06:00,
2013-01-29 13:11:00,57.4,27.9,30.09,SSW,200,1.4,6.7,32,-99.99,,,-99.99,WSDL version 420,2013-01-29 21:11:00,
2013-01-29 13:16:00,57.1,27.6,30.09,NNE,18,3.9,6.3,32,-99.99,,,-99.99,WSDL version 420,2013-01-29 21:16:00,
2013-01-29 13:21:00,58.4,28.3,30.09,WNW,293,2.2,6.3,31,-99.99,,,-99.99,WSDL version 420,2013-01-29 21:21:00,
2013-01-29 13:26:00,58.4,27.9,30.09,West,281,4.9,6.3,31,-99.99,,,-99.99,WSDL version 420,2013-01-29 21:26:00,
2013-01-29 13:32:00,58.1,27.9,30.06,NW,318,2.7,8.1,31,-99.99,,,-99.99,WSDL version 420,2013-01-29 21:32:00,
2013-01-29 13:38:00,58.1,27.6,30.06,West,275,4.3,5.8,31,-99.99,,,-99.99,WSDL version 420,2013-01-29 21:38:00,
2013-01-29 13:43:00,58.1,27.6,30.06,NW,309,5.4,6.3,31,-99.99,,,-99.99,WSDL version 420,2013-01-29 21:43:00,
2013-01-29 13:48:00,58.3,27.9,30.06,WNW,293,2.1,6.3,31,-99.99,,,-99.99,WSDL version 420,2013-01-29 21:48:00,
2013-01-29 13:53:00,58.4,27.9,30.06,SW,225,4.2,8.1,31,-99.99,,,-99.99,WSDL version 420,2013-01-29 21:53:00,
2013-01-29 13:58:00,59.0,27.7,30.06,West,275,3.7,8.1,30,-99.99,,,-99.99,WSDL version 420,2013-01-29 21:58:00,
2013-01-29 14:03:00,58.7,27.9,30.06,North,6,2.7,5.8,31,-99.99,,,-99.99,WSDL version 420,2013-01-29 22:03:00,
2013-01-29 14:08:00,58.8,27.9,30.06,NW,323,5.6,7.6,31,-99.99,,,-99.99,WSDL version 420,2013-01-29 22:08:00,
2013-01-29 14:13:00,58.6,27.8,30.06,WNW,293,0.0,7.6,30,-99.99,,,-99.99,WSDL version 420,2013-01-29 22:13:00,
2013-01-29 14:18:00,59.6,28.2,30.06,WNW,293,3.8,6.3,30,-99.99,,,-99.99,WSDL version 420,2013-01-29 22:18:00,
2013-01-29 14:23:00,59.2,27.8,30.06,WNW,298,4.3,6.7,30,-99.99,,,-99.99,WSDL version 420,2013-01-29 22:23:00,
2013-01-29 14:28:00,59.5,28.1,30.06,WNW,290,4.7,6.7,30,-99.99,,,-99.99,WSDL version 420,2013-01-29 22:28:00,
2013-01-29 14:33:00,58.9,27.6,30.06,NNW,345,4.5,7.2,30,-99.99,,,-99.99,WSDL version 420,2013-01-29 22:33:00,
2013-01-29 14:38:00,58.4,27.6,30.06,NNW,335,5.4,7.6,31,-99.99,,,-99.99,WSDL version 420,2013-01-29 22:38:00,
2013-01-29 14:43:00,58.5,27.9,30.06,North,349,5.1,7.6,30,-99.99,,,-99.99,WSDL version 420,2013-01-29 22:43:00,
2013-01-29 14:48:00,59.2,27.9,30.09,NNW,330,5.5,8.1,31,-99.99,,,-99.99,WSDL version 420,2013-01-29 22:48:00,
2013-01-29 14:53:00,58.6,27.7,30.09,NNW,344,5.3,9.6,31,-99.99,,,-99.99,WSDL version 420,2013-01-29 22:53:00,
2013-01-29 14:58:00,58.2,27.7,30.09,NNW,340,5.8,9.6,31,-99.99,,,-99.99,WSDL version 420,2013-01-29 22:58:00,
2013-01-29 15:03:00,58.3,27.8,30.09,NW,321,4.6,8.1,31,-99.99,,,-99.99,WSDL version 420,2013-01-29 23:03:00,
2013-01-29 15:08:00,58.6,28.1,30.09,NW,318,4.4,6.3,31,-99.99,,,-99.99,WSDL version 420,2013-01-29 23:08:00,
2013-01-29 15:13:00,58.8,28.1,30.09,NNW,335,3.7,6.3,31,-99.99,,,-99.99,WSDL version 420,2013-01-29 23:13:00,
2013-01-29 15:18:00,58.7,27.9,30.09,North,8,4.9,8.1,31,-99.99,,,-99.99,WSDL version 420,2013-01-29 23:18:00,
2013-01-29 15:23:00,58.1,27.7,30.09,North,8,4.8,8.1,31,-99.99,,,-99.99,WSDL version 420,2013-01-29 23:23:00,
2013-01-29 15:28:00,58.1,27.6,30.09,NNW,332,3.2,8.1,31,-99.99,,,-99.99,WSDL version 420,2013-01-29 23:28:00,
2013-01-29 15:33:00,58.3,28.5,30.09,NNW,338,2.9,6.3,32,-99.99,,,-99.99,WSDL version 420,2013-01-29 23:33:00,
2013-01-29 15:38:00,58.6,28.3,30.09,NNE,20,2.2,5.4,31,-99.99,,,-99.99,WSDL version 420,2013-01-29 23:38:00,
2013-01-29 15:43:00,58.3,28.2,30.09,NE,53,3.7,6.3,32,-99.99,,,-99.99,WSDL version 420,2013-01-29 23:43:00,
2013-01-29 15:48:00,57.4,28.4,30.09,NE,56,4.9,8.1,33,-99.99,,,-99.99,WSDL version 420,2013-01-29 23:48:00,
2013-01-29 15:53:00,57.7,28.8,30.09,ENE,70,2.1,8.1,33,-99.99,,,-99.99,WSDL version 420,2013-01-29 23:53:00,
2013-01-29 15:58:00,57.1,28.8,30.09,ENE,68,4.6,7.2,34,-99.99,,,-99.99,WSDL version 420,2013-01-29 23:58:00,
2013-01-29 16:03:00,57.0,28.9,30.09,East,80,3.7,7.2,34,-99.99,,,-99.99,WSDL version 420,2013-01-30 00:03:00,
2013-01-29 16:08:00,56.9,28.9,30.09,NE,45,4.6,7.2,34,-99.99,,,-99.99,WSDL version 420,2013-01-30 00:08:00,
2013-01-29 16:13:00,56.9,28.8,30.09,NE,45,2.7,7.2,34,-99.99,,,-99.99,WSDL version 420,2013-01-30 00:13:00,
2013-01-29 16:18:00,56.8,29.2,30.09,NE,53,2.6,4.5,35,-99.99,,,-99.99,WSDL version 420,2013-01-30 00:18:00,
2013-01-29 16:23:00,56.6,29.3,30.09,ENE,65,4.5,6.3,35,-99.99,,,-99.99,WSDL version 420,2013-01-30 00:23:00,
2013-01-29 16:28:00,56.2,28.9,30.09,ENE,59,3.6,7.6,35,-99.99,,,-99.99,WSDL version 420,2013-01-30 00:28:00,
2013-01-29 16:33:00,55.8,28.6,30.09,NE,56,4.1,7.6,35,-99.99,,,-99.99,WSDL version 420,2013-01-30 00:33:00,
2013-01-29 16:38:00,55.5,28.4,30.09,ENE,71,4.3,6.3,35,-99.99,,,-99.99,WSDL version 420,2013-01-30 00:38:00,
2013-01-29 16:43:00,55.1,28.6,30.09,NE,55,3.8,6.3,36,-99.99,,,-99.99,WSDL version 420,2013-01-30 00:43:00,
2013-01-29 16:48:00,54.8,28.4,30.12,ENE,59,4.0,6.7,36,-99.99,,,-99.99,WSDL version 420,2013-01-30 00:48:00,
2013-01-29 16:53:00,54.5,28.1,30.12,ENE,78,4.2,7.2,36,-99.99,,,-99.99,WSDL version 420,2013-01-30 00:53:00,
2013-01-29 16:58:00,54.4,28.0,30.12,ENE,58,2.5,7.2,36,-99.99,,,-99.99,WSDL version 420,2013-01-30 00:58:00,
2013-01-29 17:03:00,54.0,27.6,30.12,East,85,3.2,5.8,36,-99.99,,,-99.99,WSDL version 420,2013-01-30 01:03:00,
2013-01-29 17:08:00,53.6,27.5,30.12,ENE,68,2.8,5.8,37,-99.99,,,-99.99,WSDL version 420,2013-01-30 01:08:00,
2013-01-29 17:13:00,53.2,27.6,30.12,ENE,68,2.1,5.8,37,-99.99,,,-99.99,WSDL version 420,2013-01-30 01:13:00,
2013-01-29 17:18:00,52.8,27.3,30.12,ENE,68,0.0,4.5,37,-99.99,,,-99.99,WSDL version 420,2013-01-30 01:18:00,
2013-01-29 17:23:00,52.5,27.1,30.12,ENE,68,0.0,2.7,38,-99.99,,,-99.99,WSDL version 420,2013-01-30 01:23:00,
2013-01-29 17:28:00,52.1,27.3,30.12,ENE,68,0.3,2.7,38,-99.99,,,-99.99,WSDL version 420,2013-01-30 01:28:00,
2013-01-29 17:33:00,51.8,27.1,30.12,NE,45,1.1,3.1,39,-99.99,,,-99.99,WSDL version 420,2013-01-30 01:33:00,
2013-01-29 17:38:00,51.6,27.5,30.12,NNE,30,2.5,3.6,39,-99.99,,,-99.99,WSDL version 420,2013-01-30 01:38:00,
2013-01-29 17:43:00,51.5,28.0,30.12,NW,315,0.8,3.6,40,-99.99,,,-99.99,WSDL version 420,2013-01-30 01:43:00,
2013-01-29 17:48:00,51.4,27.9,30.12,NNW,338,2.5,3.6,40,-99.99,,,-99.99,WSDL version 420,2013-01-30 01:48:00,
2013-01-29 17:53:00,50.6,27.3,30.12,NNW,338,0.6,3.6,41,-99.99,,,-99.99,WSDL version 420,2013-01-30 01:53:00,
2013-01-29 17:58:00,50.4,27.7,30.12,NNW,338,2.2,2.7,42,-99.99,,,-99.99,WSDL version 420,2013-01-30 01:58:00,
2013-01-29 18:03:00,50.0,27.8,30.15,NNW,338,0.0,2.7,42,-99.99,,,-99.99,WSDL version 420,2013-01-30 02:03:00,
2013-01-29 18:08:00,49.7,27.8,30.15,NNW,338,0.5,2.7,43,-99.99,,,-99.99,WSDL version 420,2013-01-30 02:08:00,
2013-01-29 18:13:00,49.3,27.8,30.15,NNW,338,1.2,3.6,43,-99.99,,,-99.99,WSDL version 420,2013-01-30 02:13:00,
2013-01-29 18:18:00,49.1,28.2,30.15,NNW,338,3.1,4.0,44,-99.99,,,-99.99,WSDL version 420,2013-01-30 02:18:00,
2013-01-29 18:23:00,48.8,28.4,30.15,NNW,338,0.0,4.0,45,-99.99,,,-99.99,WSDL version 420,2013-01-30 02:23:00,
2013-01-29 18:28:00,48.3,28.3,30.15,West,280,2.9,4.9,46,-99.99,,,-99.99,WSDL version 420,2013-01-30 02:28:00,
2013-01-29 18:33:00,48.2,28.7,30.15,SW,225,2.7,4.9,47,-99.99,,,-99.99,WSDL version 420,2013-01-30 02:33:00,
2013-01-29 18:38:00,48.0,28.7,30.15,SW,225,0.0,4.0,47,-99.99,,,-99.99,WSDL version 420,2013-01-30 02:38:00,
2013-01-29 18:43:00,47.7,28.9,30.15,SW,225,0.6,2.7,48,-99.99,,,-99.99,WSDL version 420,2013-01-30 02:43:00,
2013-01-29 18:49:00,47.0,28.3,30.15,SW,225,0.0,2.7,48,-99.99,,,-99.99,WSDL version 420,2013-01-30 02:49:00,
2013-01-29 18:54:00,46.7,28.5,30.15,SW,225,0.0,2.7,49,-99.99,,,-99.99,WSDL version 420,2013-01-30 02:54:00,
2013-01-29 18:59:00,46.3,28.6,30.15,SW,225,1.5,2.7,50,-99.99,,,-99.99,WSDL version 420,2013-01-30 02:59:00,
2013-01-29 19:04:00,45.9,28.8,30.15,SW,225,0.0,2.7,51,-99.99,,,-99.99,WSDL version 420,2013-01-30 03:04:00,
2013-01-29 19:09:00,45.6,28.5,30.15,SW,225,0.0,2.7,51,-99.99,,,-99.99,WSDL version 420,2013-01-30 03:09:00,
2013-01-29 19:14:00,45.2,28.1,30.18,SW,225,0.0,2.7,51,-99.99,,,-99.99,WSDL version 420,2013-01-30 03:14:00,
2013-01-29 19:19:00,45.1,28.2,30.18,SW,225,0.0,2.7,51,-99.99,,,-99.99,WSDL version 420,2013-01-30 03:19:00,
2013-01-29 19:24:00,45.0,28.4,30.18,SW,225,0.0,2.2,52,-99.99,,,-99.99,WSDL version 420,2013-01-30 03:24:00,
2013-01-29 19:29:00,44.6,28.1,30.18,SW,225,0.0,2.2,52,-99.99,,,-99.99,WSDL version 420,2013-01-30 03:29:00,
2013-01-29 19:34:00,44.6,28.3,30.18,SW,225,0.7,2.7,52,-99.99,,,-99.99,WSDL version 420,2013-01-30 03:34:00,
2013-01-29 19:39:00,44.6,28.4,30.18,SW,225,0.0,2.7,53,-99.99,,,-99.99,WSDL version 420,2013-01-30 03:39:00,
2013-01-29 19:44:00,44.5,28.3,30.18,SW,225,0.0,2.7,53,-99.99,,,-99.99,WSDL version 420,2013-01-30 03:44:00,
2013-01-29 19:49:00,44.1,28.3,30.18,SW,225,0.0,2.7,54,-99.99,,,-99.99,WSDL version 420,2013-01-30 03:49:00,
2013-01-29 19:54:00,44.1,28.5,30.18,SW,225,0.0,3.1,54,-99.99,,,-99.99,WSDL version 420,2013-01-30 03:54:00,
2013-01-29 19:59:00,43.9,28.6,30.18,SW,225,1.9,3.1,55,-99.99,,,-99.99,WSDL version 420,2013-01-30 03:59:00,
2013-01-29 20:04:00,43.7,28.6,30.18,SW,225,0.3,3.1,55,-99.99,,,-99.99,WSDL version 420,2013-01-30 04:04:00,
2013-01-29 20:09:00,43.7,28.6,30.18,SW,225,0.0,2.7,55,-99.99,,,-99.99,WSDL version 420,2013-01-30 04:09:00,
2013-01-29 20:14:00,43.7,28.2,30.18,SW,225,0.0,2.2,54,-99.99,,,-99.99,WSDL version 420,2013-01-30 04:14:00,
2013-01-29 20:19:00,43.3,27.8,30.18,SW,225,0.0,0.0,54,-99.99,,,-99.99,WSDL version 420,2013-01-30 04:19:00,
2013-01-29 20:24:00,43.0,27.8,30.18,SW,225,0.6,2.7,56,-99.99,,,-99.99,WSDL version 420,2013-01-30 04:24:00,
2013-01-29 20:29:00,43.3,28.3,30.21,SW,225,2.3,4.0,55,-99.99,,,-99.99,WSDL version 420,2013-01-30 04:29:00,
2013-01-29 20:34:00,43.3,28.9,30.21,ENE,68,3.5,4.5,58,-99.99,,,-99.99,WSDL version 420,2013-01-30 04:34:00,
2013-01-29 20:39:00,43.2,29.5,30.21,ENE,68,0.0,4.5,58,-99.99,,,-99.99,WSDL version 420,2013-01-30 04:39:00,
2013-01-29 20:44:00,42.9,29.5,30.21,ENE,68,0.0,2.2,59,-99.99,,,-99.99,WSDL version 420,2013-01-30 04:44:00,
2013-01-29 20:49:00,42.6,29.5,30.21,ENE,68,0.0,0.0,60,-99.99,,,-99.99,WSDL version 420,2013-01-30 04:49:00,
2013-01-29 20:54:00,42.4,29.7,30.21,ENE,68,0.8,2.7,61,-99.99,,,-99.99,WSDL version 420,2013-01-30 04:54:00,
2013-01-29 20:59:00,42.1,29.6,30.21,ENE,68,0.0,2.7,61,-99.99,,,-99.99,WSDL version 420,2013-01-30 04:59:00,
2013-01-29 21:00:00,42.0,29.5,30.21,ENE,68,0.0,2.7,61,-99.99,,,-99.99,WSDL version 420,2013-01-30 05:00:00,
2013-01-29 21:03:00,41.9,29.6,30.21,East,83,0.5,3.1,62,-99.99,,,-99.99,WSDL version 420,2013-01-30 05:03:00,
2013-01-29 21:04:00,41.9,29.8,30.21,East,90,1.8,3.1,62,-99.99,,,-99.99,WSDL version 420,2013-01-30 05:04:00,
2013-01-29 21:09:00,42.4,30.1,30.21,East,90,1.9,3.1,61,-99.99,,,-99.99,WSDL version 420,2013-01-30 05:09:00,
2013-01-29 21:14:00,42.4,29.9,30.21,East,90,0.0,3.1,61,-99.99,,,-99.99,WSDL version 420,2013-01-30 05:14:00,
2013-01-29 21:19:00,42.2,29.7,30.21,East,90,0.0,2.2,61,-99.99,,,-99.99,WSDL version 420,2013-01-30 05:19:00,
2013-01-29 21:24:00,42.0,29.9,30.21,East,90,0.0,0.0,62,-99.99,,,-99.99,WSDL version 420,2013-01-30 05:24:00,
2013-01-29 21:27:00,42.0,30.0,30.21,East,90,1.0,2.7,62,-99.99,,,-99.99,WSDL version 420,2013-01-30 05:27:00,
2013-01-29 21:32:00,41.8,29.9,30.21,East,90,0.0,2.7,63,-99.99,,,-99.99,WSDL version 420,2013-01-30 05:32:00,
2013-01-29 21:38:00,42.3,30.4,30.21,East,90,0.6,3.6,62,-99.99,,,-99.99,WSDL version 420,2013-01-30 05:38:00,
2013-01-29 21:43:00,42.4,30.3,30.21,East,90,0.0,3.6,62,-99.99,,,-99.99,WSDL version 420,2013-01-30 05:43:00,
2013-01-29 21:48:00,42.4,30.3,30.21,East,90,0.7,2.7,62,-99.99,,,-99.99,WSDL version 420,2013-01-30 05:48:00,
2013-01-29 21:53:00,42.5,30.4,30.21,East,90,2.0,3.1,62,-99.99,,,-99.99,WSDL version 420,2013-01-30 05:53:00,
2013-01-29 21:58:00,42.3,30.3,30.21,East,90,2.7,3.6,62,-99.99,,,-99.99,WSDL version 420,2013-01-30 05:58:00,
2013-01-29 22:03:00,42.5,30.4,30.21,East,90,0.0,3.6,62,-99.99,,,-99.99,WSDL version 420,2013-01-30 06:03:00,
2013-01-29 22:08:00,42.0,30.0,30.21,East,90,0.0,3.1,63,-99.99,,,-99.99,WSDL version 420,2013-01-30 06:08:00,
2013-01-29 22:13:00,41.6,29.9,30.21,East,90,3.5,4.9,63,-99.99,,,-99.99,WSDL version 420,2013-01-30 06:13:00,
2013-01-29 22:18:00,41.5,30.3,30.21,East,90,2.7,4.9,64,-99.99,,,-99.99,WSDL version 420,2013-01-30 06:18:00,
2013-01-29 22:23:00,41.7,30.8,30.21,East,90,2.2,4.5,65,-99.99,,,-99.99,WSDL version 420,2013-01-30 06:23:00,
2013-01-29 22:28:00,41.6,30.5,30.21,East,90,0.6,4.0,65,-99.99,,,-99.99,WSDL version 420,2013-01-30 06:28:00,
2013-01-29 22:33:00,41.3,30.5,30.24,East,90,0.0,2.7,66,-99.99,,,-99.99,WSDL version 420,2013-01-30 06:33:00,
2013-01-29 22:38:00,41.2,30.7,30.24,East,90,0.6,2.7,66,-99.99,,,-99.99,WSDL version 420,2013-01-30 06:38:00,
2013-01-29 22:43:00,41.2,30.3,30.24,East,90,2.3,3.1,65,-99.99,,,-99.99,WSDL version 420,2013-01-30 06:43:00,
2013-01-29 22:48:00,41.2,30.3,30.24,East,90,0.0,3.1,65,-99.99,,,-99.99,WSDL version 420,2013-01-30 06:48:00,
2013-01-29 22:53:00,41.1,30.6,30.24,East,90,0.0,2.7,65,-99.99,,,-99.99,WSDL version 420,2013-01-30 06:53:00,
2013-01-29 22:58:00,40.9,30.5,30.24,East,90,0.0,2.2,66,-99.99,,,-99.99,WSDL version 420,2013-01-30 06:58:00,
2013-01-29 23:03:00,40.9,30.4,30.27,East,90,0.0,2.2,66,-99.99,,,-99.99,WSDL version 420,2013-01-30 07:03:00,
2013-01-29 23:08:00,40.8,30.4,30.27,East,90,0.0,2.2,66,-99.99,,,-99.99,WSDL version 420,2013-01-30 07:08:00,
2013-01-29 23:13:00,41.1,30.7,30.27,East,90,0.3,3.1,66,-99.99,,,-99.99,WSDL version 420,2013-01-30 07:13:00,
2013-01-29 23:18:00,40.9,30.4,30.24,East,90,0.0,3.1,66,-99.99,,,-99.99,WSDL version 420,2013-01-30 07:18:00,
2013-01-29 23:23:00,40.5,30.3,30.24,ESE,113,2.7,3.6,67,-99.99,,,-99.99,WSDL version 420,2013-01-30 07:23:00,
2013-01-29 23:28:00,40.6,30.5,30.24,ESE,113,1.0,4.0,67,-99.99,,,-99.99,WSDL version 420,2013-01-30 07:28:00,
2013-01-29 23:33:00,40.8,30.4,30.24,ESE,113,0.7,4.0,65,-99.99,,,-99.99,WSDL version 420,2013-01-30 07:33:00,
2013-01-29 23:38:00,41.2,30.3,30.24,ESE,113,2.0,3.6,65,-99.99,,,-99.99,WSDL version 420,2013-01-30 07:38:00,
2013-01-29 23:43:00,41.3,30.0,30.24,ESE,113,0.0,3.1,64,-99.99,,,-99.99,WSDL version 420,2013-01-30 07:43:00,
2013-01-29 23:48:00,41.2,30.0,30.24,ESE,113,0.0,0.0,64,-99.99,,,-99.99,WSDL version 420,2013-01-30 07:48:00,
2013-01-29 23:53:00,41.0,29.7,30.24,ESE,113,0.6,2.7,64,-99.99,,,-99.99,WSDL version 420,2013-01-30 07:53:00,
2013-01-29 23:58:00,41.4,30.1,30.24,ESE,113,0.7,2.7,64,-99.99,,,-99.99,WSDL version 420,2013-01-30 07:58:00,